createdAt,value
2018-04-09T00:02:12.698Z,13.17
2018-04-09T00:04:38.991Z,16.60
2018-04-09T00:07:05.294Z,12.00
2018-04-09T00:09:31.582Z,13.37
2018-04-09T00:11:57.900Z,11.10
2018-04-09T00:14:24.265Z,11.70
2018-04-09T00:16:50.550Z,15.00
2018-04-09T00:19:16.841Z,11.20
2018-04-09T00:21:43.170Z,13.93
2018-04-09T00:24:10.181Z,12.23
2018-04-09T00:26:36.450Z,13.07
2018-04-09T00:29:02.734Z,11.70
2018-04-09T00:31:29.031Z,11.03
2018-04-09T00:33:56.191Z,11.37
2018-04-09T00:36:22.511Z,9.47
2018-04-09T00:38:48.777Z,12.33
2018-04-09T00:41:15.120Z,11.93
2018-04-09T00:43:41.398Z,13.03
2018-04-09T00:46:08.422Z,10.30
2018-04-09T00:48:34.702Z,13.90
2018-04-09T00:51:01.052Z,11.23
2018-04-09T00:53:39.577Z,12.80
2018-04-09T00:56:05.871Z,13.07
2018-04-09T00:58:32.174Z,12.00
2018-04-09T01:00:58.470Z,11.87
2018-04-09T01:03:25.569Z,14.53
2018-04-09T01:05:51.926Z,11.13
2018-04-09T01:08:18.186Z,11.37
2018-04-09T01:10:44.513Z,9.97
2018-04-09T01:13:10.793Z,9.73
2018-04-09T01:15:37.094Z,11.20
2018-04-09T01:18:03.391Z,13.87
2018-04-09T01:20:30.473Z,10.37
2018-04-09T01:22:56.855Z,8.77
2018-04-09T01:25:23.134Z,12.67
2018-04-09T01:27:49.395Z,9.90
2018-04-09T01:30:15.686Z,12.77
2018-04-09T01:32:42.722Z,11.43
2018-04-09T01:35:09.039Z,11.70
2018-04-09T01:37:35.333Z,8.93
2018-04-09T01:40:01.611Z,10.93
2018-04-09T01:42:27.961Z,10.57
2018-04-09T01:44:55.158Z,12.93
2018-04-09T01:47:22.209Z,11.23
2018-04-09T01:49:48.497Z,10.30
2018-04-09T01:52:15.514Z,13.40
2018-04-09T01:54:41.583Z,8.90
2018-04-09T01:57:09.490Z,10.88
2018-04-09T01:59:35.561Z,10.50
2018-04-09T02:02:01.654Z,13.00
2018-04-09T02:04:27.760Z,11.30
2018-04-09T02:06:54.638Z,12.50
2018-04-09T02:09:20.738Z,12.77
2018-04-09T02:11:46.814Z,11.30
2018-04-09T02:14:12.922Z,12.87
2018-04-09T02:16:39.779Z,11.65
2018-04-09T02:19:06.606Z,11.53
2018-04-09T02:21:32.690Z,11.50
2018-04-09T02:23:59.550Z,8.40
2018-04-09T02:26:25.738Z,13.33
2018-04-09T02:28:51.838Z,11.63
2018-04-09T02:31:17.927Z,8.80
2018-04-09T02:33:44.052Z,11.53
2018-04-09T02:36:10.163Z,11.50
2018-04-09T02:38:36.436Z,9.90
2018-04-09T02:41:02.639Z,12.50
2018-04-09T02:43:28.963Z,12.43
2018-04-09T02:45:55.360Z,14.18
2018-04-09T02:48:21.655Z,10.13
2018-04-09T02:50:48.647Z,12.50
2018-04-09T02:53:14.996Z,10.65
2018-04-09T02:55:41.282Z,16.98
2018-04-09T02:58:07.528Z,12.80
2018-04-09T03:00:33.832Z,8.87
2018-04-09T03:03:00.180Z,11.53
2018-04-09T03:05:27.312Z,9.97
2018-04-09T03:07:53.430Z,11.90
2018-04-09T03:10:19.768Z,12.67
2018-04-09T03:12:45.894Z,14.00
2018-04-09T03:15:12.988Z,11.50
2018-04-09T03:17:39.102Z,19.60
2018-04-09T03:20:05.420Z,12.20
2018-04-09T03:22:31.755Z,24.42
2018-04-09T03:24:58.859Z,11.05
2018-04-09T03:27:25.054Z,13.70
2018-04-09T03:29:51.350Z,13.30
2018-04-09T03:32:17.425Z,11.10
2018-04-09T03:34:43.734Z,12.23
2018-04-09T03:37:10.037Z,12.05
2018-04-09T03:39:36.337Z,15.68
2018-04-09T03:42:02.619Z,13.20
2018-04-09T03:44:29.041Z,13.48
2018-04-09T03:46:55.482Z,12.75
2018-04-09T03:49:21.795Z,11.98
2018-04-09T03:51:48.116Z,12.68
2018-04-09T03:54:14.402Z,12.48
2018-04-09T03:56:40.702Z,11.95
2018-04-09T03:59:07.510Z,17.10
2018-04-09T04:01:33.819Z,17.67
2018-04-09T04:04:00.156Z,12.50
2018-04-09T04:06:26.502Z,12.65
2018-04-09T04:08:52.778Z,14.55
2018-04-09T04:11:19.081Z,14.60
2018-04-09T04:13:45.410Z,11.50
2018-04-09T04:16:24.027Z,13.40
2018-04-09T04:19:07.507Z,14.30
2018-04-09T04:21:43.714Z,14.00
2018-04-09T04:24:10.009Z,14.38
2018-04-09T04:26:36.306Z,14.43
2018-04-09T04:29:02.643Z,12.35
2018-04-09T04:31:29.702Z,13.65
2018-04-09T04:33:55.839Z,14.45
2018-04-09T04:36:22.144Z,14.27
2018-04-09T04:38:48.440Z,12.95
2018-04-09T04:41:14.790Z,17.10
2018-04-09T04:43:41.098Z,15.40
2018-04-09T04:46:07.350Z,13.00
2018-04-09T04:48:33.731Z,16.98
2018-04-09T04:51:00.037Z,21.90
2018-04-09T04:53:27.102Z,14.63
2018-04-09T04:55:53.178Z,12.88
2018-04-09T04:58:19.262Z,11.27
2018-04-09T05:00:45.617Z,18.35
2018-04-09T05:03:12.503Z,11.65
2018-04-09T05:05:38.598Z,16.02
2018-04-09T05:08:04.718Z,14.93
2018-04-09T05:10:31.555Z,17.92
2018-04-09T05:12:57.696Z,17.92
2018-04-09T05:15:23.878Z,11.57
2018-04-09T05:17:50.023Z,14.15
2018-04-09T05:20:16.221Z,14.07
2018-04-09T05:22:43.266Z,16.05
2018-04-09T05:25:10.102Z,11.80
2018-04-09T05:27:36.195Z,15.25
2018-04-09T05:30:02.497Z,16.00
2018-04-09T05:32:28.790Z,16.62
2018-04-09T05:34:55.899Z,21.15
2018-04-09T05:37:23.014Z,17.60
2018-04-09T05:39:49.118Z,10.55
2018-04-09T05:42:15.942Z,16.50
2018-04-09T05:44:43.062Z,17.27
2018-04-09T05:47:09.114Z,12.65
2018-04-09T05:49:35.174Z,17.05
2018-04-09T05:52:01.240Z,13.27
2018-04-09T05:54:28.062Z,15.63
2018-04-09T05:56:55.042Z,21.13
2018-04-09T05:59:22.026Z,15.27
2018-04-09T06:01:48.847Z,16.97
2018-04-09T06:04:14.981Z,14.48
2018-04-09T06:06:41.054Z,16.17
2018-04-09T06:09:07.120Z,15.27
2018-04-09T06:11:33.174Z,17.10
2018-04-09T06:13:59.297Z,16.95
2018-04-09T06:16:25.418Z,15.18
2018-04-09T06:18:51.500Z,13.65
2018-04-09T06:21:17.568Z,18.97
2018-04-09T06:23:44.612Z,17.20
2018-04-09T06:26:12.735Z,19.10
2018-04-09T06:28:38.790Z,18.37
2018-04-09T06:31:05.066Z,14.15
2018-04-09T06:33:32.338Z,10.63
2018-04-09T06:35:58.673Z,19.00
2018-04-09T06:38:26.139Z,12.30
2018-04-09T06:40:52.278Z,13.00
2018-04-09T06:43:18.562Z,17.67
2018-04-09T06:45:44.910Z,17.27
2018-04-09T06:48:11.204Z,16.70
2018-04-09T06:50:38.280Z,17.57
2018-04-09T06:53:04.530Z,21.07
2018-04-09T06:55:31.598Z,25.70
2018-04-09T06:57:57.950Z,26.80
2018-04-09T07:00:24.342Z,24.43
2018-04-09T07:02:50.618Z,24.50
2018-04-09T07:05:16.921Z,28.20
2018-04-09T07:07:44.242Z,24.90
2018-04-09T07:10:10.618Z,23.67
2018-04-09T07:12:36.890Z,24.43
2018-04-09T07:15:03.147Z,32.43
2018-04-09T07:17:30.203Z,25.43
2018-04-09T07:19:56.530Z,21.43
2018-04-09T07:22:23.569Z,25.60
2018-04-09T07:24:50.670Z,23.27
2018-04-09T07:27:17.723Z,25.03
2018-04-09T07:29:44.747Z,25.20
2018-04-09T07:32:11.072Z,26.63
2018-04-09T07:34:37.349Z,22.57
2018-04-09T07:37:03.619Z,25.30
2018-04-09T07:39:29.917Z,27.53
2018-04-09T07:41:56.251Z,27.47
2018-04-09T07:44:22.540Z,24.73
2018-04-09T07:46:48.754Z,25.30
2018-04-09T07:49:14.986Z,23.83
2018-04-09T07:51:42.290Z,25.13
2018-04-09T07:54:09.312Z,27.33
2018-04-09T07:56:36.333Z,28.03
2018-04-09T07:59:02.588Z,27.00
2018-04-09T08:01:28.890Z,22.70
2018-04-09T08:03:55.243Z,29.97
2018-04-09T08:06:22.288Z,28.23
2018-04-09T08:08:48.544Z,27.03
2018-04-09T08:11:15.571Z,29.63
2018-04-09T08:13:42.558Z,29.03
2018-04-09T08:16:08.843Z,25.97
2018-04-09T08:18:35.087Z,24.27
2018-04-09T08:21:05.371Z,29.23
2018-04-09T08:23:31.454Z,28.47
2018-04-09T08:25:57.542Z,31.47
2018-04-09T08:28:23.640Z,25.70
2018-04-09T08:30:50.470Z,30.10
2018-04-09T08:33:16.506Z,26.33
2018-04-09T08:35:42.558Z,31.40
2018-04-09T08:38:11.527Z,35.03
2018-04-09T08:40:37.607Z,27.30
2018-04-09T08:43:03.689Z,29.13
2018-04-09T08:45:29.815Z,33.70
2018-04-09T08:47:56.047Z,29.73
2018-04-09T08:50:22.142Z,25.77
2018-04-09T08:52:48.572Z,27.23
2018-04-09T08:55:17.537Z,29.00
2018-04-09T08:57:43.658Z,31.43
2018-04-09T09:00:09.757Z,29.30
2018-04-09T09:02:35.887Z,33.67
2018-04-09T09:05:02.022Z,25.70
2018-04-09T09:07:28.143Z,28.93
2018-04-09T09:09:54.269Z,30.07
2018-04-09T09:12:20.358Z,33.63
2018-04-09T09:14:48.874Z,33.07
2018-04-09T09:17:14.994Z,26.03
2018-04-09T09:19:41.087Z,30.80
2018-04-09T09:22:07.168Z,31.77
2018-04-09T09:24:33.272Z,28.50
2018-04-09T09:26:59.455Z,31.23
2018-04-09T09:29:25.653Z,31.43
2018-04-09T09:31:52.667Z,34.90
2018-04-09T09:34:20.434Z,35.73
2018-04-09T09:36:46.532Z,27.80
2018-04-09T09:39:12.656Z,24.03
2018-04-09T09:41:38.746Z,29.83
2018-04-09T09:44:05.066Z,29.20
2018-04-09T09:46:31.354Z,27.53
2018-04-09T09:48:57.681Z,27.93
2018-04-09T09:51:24.093Z,31.13
2018-04-09T09:53:54.822Z,32.10
2018-04-09T09:56:20.969Z,34.37
2018-04-09T09:58:47.875Z,29.40
2018-04-09T10:01:13.993Z,26.97
2018-04-09T10:04:01.944Z,31.53
2018-04-09T10:06:31.693Z,32.27
2018-04-09T10:08:57.814Z,34.10
2018-04-09T10:11:23.932Z,33.43
2018-04-09T10:13:50.078Z,30.53
2018-04-09T10:16:16.198Z,32.83
2018-04-09T10:18:43.696Z,29.73
2018-04-09T10:21:09.808Z,32.50
2018-04-09T10:23:35.911Z,30.50
2018-04-09T10:26:02.791Z,34.43
2018-04-09T10:28:28.950Z,35.80
2018-04-09T10:30:55.188Z,34.60
2018-04-09T10:33:21.294Z,33.57
2018-04-09T10:35:47.363Z,42.60
2018-04-09T10:38:13.475Z,33.40
2018-04-09T10:40:39.548Z,35.53
2018-04-09T10:43:05.634Z,34.63
2018-04-09T10:45:32.499Z,34.50
2018-04-09T10:47:58.670Z,33.33
2018-04-09T10:50:24.806Z,37.27
2018-04-09T10:52:50.932Z,38.03
2018-04-09T10:55:18.069Z,36.87
2018-04-09T10:57:44.162Z,36.33
2018-04-09T11:00:10.253Z,35.53
2018-04-09T11:02:36.528Z,35.10
2018-04-09T11:05:02.762Z,32.97
2018-04-09T11:07:29.647Z,35.93
2018-04-09T11:09:55.776Z,35.17
2018-04-09T11:12:21.857Z,35.10
2018-04-09T11:14:47.938Z,34.17
2018-04-09T11:17:14.066Z,29.43
2018-04-09T11:19:40.143Z,30.63
2018-04-09T11:22:06.222Z,34.57
2018-04-09T11:24:32.362Z,31.60
2018-04-09T11:26:58.575Z,33.93
2018-04-09T11:29:25.626Z,36.73
2018-04-09T11:31:54.538Z,28.10
2018-04-09T11:34:20.646Z,34.53
2018-04-09T11:36:46.749Z,28.37
2018-04-09T11:39:12.836Z,32.67
2018-04-09T11:41:38.904Z,31.60
2018-04-09T11:44:06.636Z,31.07
2018-04-09T11:46:32.724Z,28.83
2018-04-09T11:48:58.862Z,29.63
2018-04-09T11:51:24.988Z,26.90
2018-04-09T11:53:51.084Z,26.50
2018-04-09T11:56:17.891Z,29.90
2018-04-09T11:58:44.010Z,24.77
2018-04-09T12:01:15.608Z,25.57
2018-04-09T12:03:41.775Z,24.70
2018-04-09T12:06:07.861Z,26.67
2018-04-09T12:08:34.675Z,25.07
2018-04-09T12:11:00.785Z,28.87
2018-04-09T12:13:27.788Z,23.70
2018-04-09T12:15:53.893Z,26.80
2018-04-09T12:18:22.284Z,21.07
2018-04-09T12:20:48.679Z,28.93
2018-04-09T12:23:14.822Z,21.43
2018-04-09T12:25:41.653Z,23.40
2018-04-09T12:28:07.750Z,27.93
2018-04-09T12:30:33.885Z,23.30
2018-04-09T12:33:00.070Z,23.63
2018-04-09T12:35:26.227Z,22.60
2018-04-09T12:37:57.084Z,30.13
2018-04-09T12:40:23.235Z,26.67
2018-04-09T12:42:50.072Z,25.20
2018-04-09T12:45:16.184Z,27.93
2018-04-09T12:47:42.283Z,27.03
2018-04-09T12:50:08.364Z,26.30
2018-04-09T12:52:34.445Z,22.20
2018-04-09T12:55:00.565Z,24.50
2018-04-09T12:57:28.505Z,24.20
2018-04-09T12:59:54.601Z,26.90
2018-04-09T13:02:21.441Z,28.53
2018-04-09T13:04:47.529Z,29.87
2018-04-09T13:07:13.601Z,28.63
2018-04-09T13:09:39.692Z,33.87
2018-04-09T13:12:05.784Z,26.83
2018-04-09T13:14:31.875Z,29.80
2018-04-09T13:16:58.001Z,30.40
2018-04-09T13:19:24.104Z,28.00
2018-04-09T13:21:50.196Z,31.63
2018-04-09T13:24:16.298Z,34.43
2018-04-09T13:26:43.126Z,29.87
2018-04-09T13:29:09.237Z,28.27
2018-04-09T13:31:35.292Z,28.63
2018-04-09T13:34:01.376Z,25.67
2018-04-09T13:36:28.243Z,30.53
2018-04-09T13:38:54.359Z,32.00
2018-04-09T13:41:20.455Z,31.23
2018-04-09T13:43:46.716Z,33.23
2018-04-09T13:46:12.984Z,31.37
2018-04-09T13:48:39.228Z,28.03
2018-04-09T13:51:06.284Z,30.53
2018-04-09T13:53:32.685Z,33.60
2018-04-09T13:55:59.020Z,30.10
2018-04-09T13:58:25.347Z,29.30
2018-04-09T14:00:51.728Z,27.10
2018-04-09T14:03:18.012Z,35.60
2018-04-09T14:05:45.033Z,29.13
2018-04-09T14:08:12.055Z,31.30
2018-04-09T14:10:38.388Z,35.07
2018-04-09T14:13:07.036Z,29.10
2018-04-09T14:15:33.325Z,29.43
2018-04-09T14:17:59.620Z,31.73
2018-04-09T14:20:26.779Z,31.67
2018-04-09T14:22:53.826Z,31.73
2018-04-09T14:25:20.137Z,32.20
2018-04-09T14:27:46.465Z,30.20
2018-04-09T14:30:12.792Z,28.27
2018-04-09T14:32:39.128Z,30.90
2018-04-09T14:35:06.148Z,29.60
2018-04-09T14:37:32.503Z,31.73
2018-04-09T14:39:58.832Z,31.40
2018-04-09T14:42:25.202Z,28.07
2018-04-09T14:44:52.216Z,27.90
2018-04-09T14:47:18.840Z,32.80
2018-04-09T14:49:49.334Z,31.33
2018-04-09T14:52:16.271Z,29.40
2018-04-09T14:54:42.541Z,30.90
2018-04-09T14:57:08.884Z,28.43
2018-04-09T14:59:35.159Z,26.97
2018-04-09T15:02:01.456Z,34.70
2018-04-09T15:04:28.679Z,29.57
2018-04-09T15:06:55.072Z,34.70
2018-04-09T15:09:21.393Z,30.33
2018-04-09T15:11:47.668Z,30.90
2018-04-09T15:14:14.708Z,30.10
2018-04-09T15:16:41.452Z,38.00
2018-04-09T15:19:07.760Z,31.53
2018-04-09T15:21:34.758Z,36.27
2018-04-09T15:24:01.026Z,33.53
2018-04-09T15:26:28.104Z,40.90
2018-04-09T15:28:54.185Z,35.03
2018-04-09T15:31:20.265Z,32.50
2018-04-09T15:33:46.553Z,34.30
2018-04-09T15:36:12.861Z,34.40
2018-04-09T15:38:39.140Z,34.27
2018-04-09T15:41:05.379Z,42.20
2018-04-09T15:43:32.814Z,36.20
2018-04-09T15:45:58.977Z,40.93
2018-04-09T15:48:25.087Z,37.90
2018-04-09T15:50:52.311Z,40.23
2018-04-09T15:53:19.128Z,44.20
2018-04-09T15:55:45.230Z,42.17
2018-04-09T15:58:11.292Z,46.83
2018-04-09T16:00:37.335Z,47.47
2018-04-09T16:03:03.692Z,49.90
2018-04-09T16:05:29.842Z,48.53
2018-04-09T16:07:57.044Z,49.57
2018-04-09T16:10:23.161Z,48.90
2018-04-09T16:12:50.321Z,48.53
2018-04-09T16:15:17.356Z,50.90
2018-04-09T16:17:55.881Z,49.10
2018-04-09T16:20:21.976Z,47.90
2018-04-09T16:22:48.871Z,49.40
2018-04-09T16:25:16.064Z,49.80
2018-04-09T16:27:42.908Z,53.90
2018-04-09T16:30:09.705Z,53.27
2018-04-09T16:32:35.744Z,51.30
2018-04-09T16:35:01.797Z,49.53
2018-04-09T16:37:27.900Z,54.00
2018-04-09T16:39:53.988Z,51.57
2018-04-09T16:42:20.077Z,49.03
2018-04-09T16:44:46.170Z,49.90
2018-04-09T16:47:12.249Z,55.30
2018-04-09T16:49:40.479Z,56.30
2018-04-09T16:52:06.548Z,52.53
2018-04-09T16:54:33.454Z,57.70
2018-04-09T16:56:59.609Z,56.60
2018-04-09T16:59:26.493Z,52.67
2018-04-09T17:01:53.318Z,49.63
2018-04-09T17:04:19.412Z,53.27
2018-04-09T17:06:45.527Z,52.90
2018-04-09T17:09:12.387Z,56.10
2018-04-09T17:11:38.448Z,51.50
2018-04-09T17:14:04.548Z,50.57
2018-04-09T17:16:31.386Z,49.33
2018-04-09T17:18:57.623Z,52.30
2018-04-09T17:21:23.712Z,51.47
2018-04-09T17:23:49.820Z,47.93
2018-04-09T17:26:16.089Z,51.13
2018-04-09T17:28:43.093Z,55.53
2018-04-09T17:31:09.197Z,51.33
2018-04-09T17:33:35.280Z,49.27
2018-04-09T17:36:01.545Z,56.60
2018-04-09T17:38:28.592Z,53.93
2018-04-09T17:40:55.455Z,53.50
2018-04-09T17:43:21.549Z,55.83
2018-04-09T17:45:47.801Z,52.43
2018-04-09T17:48:14.788Z,52.83
2018-04-09T17:50:41.048Z,48.47
2018-04-09T17:53:07.304Z,49.70
2018-04-09T17:55:33.556Z,47.83
2018-04-09T17:57:59.865Z,46.83
2018-04-09T18:00:27.056Z,48.33
2018-04-09T18:02:54.397Z,49.23
2018-04-09T18:05:20.540Z,53.07
2018-04-09T18:07:46.822Z,52.40
2018-04-09T18:10:13.099Z,53.00
2018-04-09T18:12:39.357Z,52.60
2018-04-09T18:15:05.654Z,53.50
2018-04-09T18:17:32.136Z,53.13
2018-04-09T18:19:58.396Z,45.47
2018-04-09T18:22:24.724Z,46.63
2018-04-09T18:24:51.039Z,52.90
2018-04-09T18:27:17.320Z,51.40
2018-04-09T18:29:43.597Z,48.10
2018-04-09T18:32:09.879Z,48.77
2018-04-09T18:34:36.161Z,50.37
2018-04-09T18:37:02.530Z,52.23
2018-04-09T18:39:28.865Z,55.53
2018-04-09T18:41:55.355Z,55.40
2018-04-09T18:44:21.683Z,52.10
2018-04-09T18:46:49.004Z,50.80
2018-04-09T18:49:15.581Z,54.20
2018-04-09T18:51:41.864Z,48.37
2018-04-09T18:54:08.950Z,52.70
2018-04-09T18:56:35.279Z,44.47
2018-04-09T18:59:01.624Z,54.60
2018-04-09T19:01:27.965Z,58.90
2018-04-09T19:03:54.258Z,63.30
2018-04-09T19:06:20.588Z,59.20
2018-04-09T19:08:46.869Z,57.67
2018-04-09T19:11:13.244Z,57.17
2018-04-09T19:13:39.520Z,49.97
2018-04-09T19:16:06.562Z,53.47
2018-04-09T19:18:33.701Z,47.07
2018-04-09T19:21:00.004Z,49.23
2018-04-09T19:23:27.069Z,48.90
2018-04-09T19:25:53.407Z,52.57
2018-04-09T19:28:20.376Z,54.47
2018-04-09T19:30:46.740Z,48.80
2018-04-09T19:33:14.905Z,50.53
2018-04-09T19:35:47.208Z,49.57
2018-04-09T19:38:19.542Z,48.97
2018-04-09T19:40:46.527Z,54.37
2018-04-09T19:43:12.617Z,53.27
2018-04-09T19:45:38.736Z,47.67
2018-04-09T19:48:04.984Z,52.00
2018-04-09T19:50:31.267Z,47.03
2018-04-09T19:52:57.620Z,50.93
2018-04-09T19:55:23.952Z,51.17
2018-04-09T19:57:50.304Z,45.17
2018-04-09T20:00:16.444Z,47.57
2018-04-09T20:02:42.999Z,49.80
2018-04-09T20:05:09.088Z,52.10
2018-04-09T20:07:35.176Z,42.77
2018-04-09T20:10:02.171Z,45.00
2018-04-09T20:12:28.351Z,36.53
2018-04-09T20:14:55.237Z,45.97
2018-04-09T20:17:21.303Z,45.73
2018-04-09T20:19:47.360Z,41.07
2018-04-09T20:22:14.143Z,38.83
2018-04-09T20:24:40.257Z,39.57
2018-04-09T20:27:06.517Z,41.93
2018-04-09T20:29:33.548Z,39.30
2018-04-09T20:31:59.749Z,40.60
2018-04-09T20:34:25.906Z,41.53
2018-04-09T20:36:52.177Z,36.93
2018-04-09T20:39:19.032Z,41.70
2018-04-09T20:41:45.886Z,37.70
2018-04-09T20:44:12.024Z,37.60
2018-04-09T20:46:38.848Z,38.70
2018-04-09T20:49:04.968Z,38.37
2018-04-09T20:51:31.317Z,41.00
2018-04-09T20:53:57.680Z,40.97
2018-04-09T20:56:23.957Z,41.37
2018-04-09T20:58:50.303Z,43.00
2018-04-09T21:01:16.698Z,41.67
2018-04-09T21:03:43.039Z,41.13
2018-04-09T21:06:10.100Z,41.67
2018-04-09T21:08:37.081Z,35.83
2018-04-09T21:11:03.285Z,42.90
2018-04-09T21:13:29.405Z,39.47
2018-04-09T21:15:55.708Z,38.03
2018-04-09T21:18:22.007Z,35.47
2018-04-09T21:20:48.312Z,41.90
2018-04-09T21:23:14.642Z,40.73
2018-04-09T21:25:40.925Z,38.27
2018-04-09T21:28:07.184Z,38.20
2018-04-09T21:30:33.597Z,39.67
2018-04-09T21:32:59.907Z,44.50
2018-04-09T21:35:26.305Z,38.33
2018-04-09T21:37:53.348Z,37.17
2018-04-09T21:40:19.592Z,43.80
2018-04-09T21:42:45.836Z,41.90
2018-04-09T21:45:12.133Z,42.93
2018-04-09T21:47:39.116Z,38.03
2018-04-09T21:50:05.488Z,39.97
2018-04-09T21:52:31.844Z,40.43
2018-04-09T21:54:58.194Z,42.20
2018-04-09T21:57:24.538Z,40.77
2018-04-09T21:59:50.816Z,36.70
2018-04-09T22:02:17.064Z,41.57
2018-04-09T22:04:43.300Z,39.30
2018-04-09T22:07:10.257Z,37.20
2018-04-09T22:09:36.524Z,38.80
2018-04-09T22:12:02.755Z,36.20
2018-04-09T22:14:29.061Z,38.13
2018-04-09T22:16:55.373Z,37.33
2018-04-09T22:19:22.376Z,34.03
2018-04-09T22:21:48.620Z,32.40
2018-04-09T22:24:14.908Z,39.07
2018-04-09T22:26:41.915Z,40.83
2018-04-09T22:29:08.177Z,39.53
2018-04-09T22:31:34.382Z,33.23
2018-04-09T22:34:01.381Z,31.90
2018-04-09T22:36:27.648Z,31.13
2018-04-09T22:38:54.765Z,31.23
2018-04-09T22:41:21.064Z,29.43
2018-04-09T22:43:47.345Z,27.30
2018-04-09T22:46:14.357Z,30.63
2018-04-09T22:48:41.197Z,18.40
2018-04-09T22:51:08.325Z,19.60
2018-04-09T22:53:34.404Z,16.93
2018-04-09T22:56:01.572Z,13.70
2018-04-09T22:58:28.495Z,12.63
2018-04-09T23:00:54.637Z,14.03
2018-04-09T23:03:20.736Z,16.40
2018-04-09T23:05:46.812Z,15.33
2018-04-09T23:08:12.995Z,14.43
2018-04-09T23:10:39.073Z,13.00
2018-04-09T23:13:05.151Z,12.23
2018-04-09T23:15:31.980Z,11.10
2018-04-09T23:17:58.119Z,15.30
2018-04-09T23:20:24.197Z,11.83
2018-04-09T23:22:50.276Z,15.47
2018-04-09T23:25:16.438Z,11.27
2018-04-09T23:27:42.736Z,12.20
2018-04-09T23:30:09.012Z,12.53
2018-04-09T23:32:35.260Z,15.10
2018-04-09T23:35:01.532Z,14.40
2018-04-09T23:37:28.660Z,11.63
2018-04-09T23:39:55.009Z,12.63
2018-04-09T23:42:21.255Z,15.00
2018-04-09T23:44:47.515Z,15.83
2018-04-09T23:47:13.770Z,14.90
2018-04-09T23:49:40.065Z,15.37
2018-04-09T23:52:06.344Z,15.73
2018-04-09T23:54:32.616Z,13.73
2018-04-09T23:56:58.934Z,15.40
2018-04-09T23:59:26.078Z,13.70
